Data for 02/16/2010

Time Sea-Level Adjusted Pressure Absolute Pressure Temperature Relative Humidity Dew Point   
(mb) (inHg) (mb) (inHg) (C) (F) (%) (C) (F)
00:05 1023 30.21 852 25.16 -1.5 29.4 95 -2.2 28.1
00:10 1023 30.21 852 25.16 -1.4 29.5 95 -2.1 28.2
00:15 1023 30.21 852 25.16 -1.6 29.2 95 -2.3 27.9
00:20 1023 30.21 852 25.16 -1.8 28.7 96 -2.4 27.7
00:25 1023 30.21 852 25.16 -1.8 28.8 97 -2.3 27.9
00:30 1023 30.21 852 25.16 -1.8 28.8 96 -2.3 27.9
00:35 1023 30.21 852 25.16 -2 28.5 97 -2.4 27.6
00:40 1023 30.21 852 25.16 -2.1 28.3 97 -2.5 27.5
00:45 1023 30.21 852 25.16 -2 28.5 98 -2.3 27.9
00:50 1023 30.21 852 25.16 -1.8 28.8 98 -2.1 28.2
00:55 1022 30.18 852 25.16 -1.9 28.6 98 -2.2 28
01:00 1022 30.18 852 25.16 -2 28.4 98 -2.3 27.9
01:05 1022 30.18 852 25.16 -2.1 28.2 98 -2.4 27.6
01:10 1022 30.18 852 25.16 -2.2 28 98 -2.5 27.5
01:15 1022 30.18 851 25.13 -2.2 28.1 99 -2.4 27.7
01:20 1022 30.18 851 25.13 -2.2 28 98 -2.4 27.6
01:25 1022 30.18 851 25.13 -2.2 28.1 98 -2.4 27.7
01:30 1022 30.18 851 25.13 -2.1 28.2 98 -2.4 27.7
01:35 1022 30.18 851 25.13 -2 28.5 97 -2.3 27.8
01:40 1022 30.18 851 25.13 -2.1 28.3 96 -2.6 27.3
01:45 1022 30.18 851 25.13 -2.1 28.3 96 -2.6 27.3
01:50 1022 30.18 851 25.13 -2 28.4 95 -2.7 27.1
01:55 1022 30.18 851 25.13 -1.8 28.7 94 -2.7 27.1
02:00 1022 30.18 851 25.13 -1.8 28.8 92 -2.9 26.7
02:05 1022 30.18 851 25.13 -1.6 29 91 -2.9 26.8
02:10 1022 30.18 851 25.13 -1.6 29.1 92 -2.7 27.1
02:15 1022 30.18 851 25.13 -1.5 29.2 92 -2.6 27.3
02:20 1022 30.18 851 25.13 -1.6 29.2 92 -2.6 27.3
02:25 1022 30.18 851 25.13 -1.6 29.2 93 -2.5 27.4
02:30 1022 30.18 851 25.13 -1.5 29.4 92 -2.6 27.4
02:35 1022 30.18 851 25.13 -1.4 29.4 92 -2.6 27.3
02:40 1022 30.18 851 25.13 -1.4 29.5 92 -2.5 27.5
02:45 1022 30.18 851 25.13 -1.2 29.9 91 -2.5 27.5
02:50 1022 30.18 851 25.13 -1.1 30.1 90 -2.5 27.5
02:55 1022 30.18 851 25.13 -1 30.2 90 -2.5 27.6
03:00 1022 30.18 851 25.13 -0.9 30.4 89 -2.4 27.6
03:05 1022 30.18 851 25.13 -0.8 30.6 88 -2.5 27.4
03:10 1022 30.18 851 25.13 -0.6 31 87 -2.6 27.4
03:15 1022 30.18 851 25.13 -0.6 30.8 88 -2.5 27.6
03:20 1022 30.18 851 25.13 -0.6 30.8 87 -2.6 27.4
03:25 1022 30.18 851 25.13 -0.6 30.8 87 -2.6 27.3
03:30 1022 30.18 851 25.13 -0.6 30.9 87 -2.6 27.4
03:35 1022 30.18 851 25.13 -0.6 30.9 86 -2.7 27.2
03:40 1021 30.15 851 25.13 -0.7 30.8 85 -2.9 26.9
03:45 1021 30.15 851 25.13 -0.8 30.5 86 -2.8 26.9
03:50 1021 30.15 851 25.13 -0.8 30.6 87 -2.7 27.1
03:55 1021 30.15 851 25.13 -0.8 30.6 87 -2.7 27.1
04:00 1021 30.15 851 25.13 -0.8 30.5 87 -2.8 27
04:05 1021 30.15 851 25.13 -0.8 30.6 87 -2.8 27
04:10 1021 30.15 851 25.13 -0.7 30.7 85 -3 26.6
04:15 1021 30.15 851 25.13 -0.8 30.6 85 -3 26.6
04:20 1021 30.15 850 25.1 -0.6 30.9 83 -3.1 26.4
04:25 1021 30.15 850 25.1 -0.5 31.1 83 -3.1 26.4
04:30 1021 30.15 851 25.13 -0.4 31.2 82 -3.2 26.3
04:35 1021 30.15 851 25.13 -0.2 31.6 80 -3.3 26.1
04:40 1021 30.15 851 25.13 -0.3 31.4 80 -3.4 26
04:45 1021 30.15 851 25.13 -0.5 31.1 79 -3.7 25.4
04:50 1021 30.15 851 25.13 -0.6 31 79 -3.7 25.4
04:55 1021 30.15 851 25.13 -0.3 31.4 79 -3.5 25.7
05:00 1021 30.15 851 25.13 -0.3 31.4 79 -3.6 25.5
05:05 1021 30.15 851 25.13 -0.5 31.1 77 -4 24.8
05:10 1021 30.15 851 25.13 -0.6 30.9 78 -4 24.8
05:15 1021 30.15 851 25.13 -0.7 30.8 79 -3.9 25
05:20 1021 30.15 851 25.13 -0.7 30.8 78 -4 24.7
05:25 1022 30.18 851 25.13 -1 30.2 79 -4.2 24.4
05:30 1022 30.18 851 25.13 -1.3 29.6 80 -4.3 24.2
05:35 1022 30.18 851 25.13 -1.6 29.1 82 -4.3 24.2
05:40 1022 30.18 851 25.13 -2 28.5 85 -4.2 24.4
05:45 1021 30.15 851 25.13 -2.2 28.1 86 -4.1 24.6
05:50 1021 30.15 851 25.13 -2.6 27.3 84 -5 22.9
05:55 1021 30.15 851 25.13 -3 26.6 84 -5.4 22.3
06:00 1021 30.15 851 25.13 -3.1 26.5 85 -5.3 22.5
06:05 1021 30.15 851 25.13 -2.6 27.4 81 -5.4 22.3
06:10 1021 30.15 851 25.13 -2.9 26.8 81 -5.7 21.7
06:15 1021 30.15 851 25.13 -2.4 27.6 77 -5.9 21.4
06:20 1021 30.15 851 25.13 -2 28.4 76 -5.7 21.7
06:25 1021 30.15 851 25.13 -2.3 27.9 78 -5.6 22
06:30 1021 30.15 851 25.13 -2.4 27.6 80 -5.5 22.2
06:35 1021 30.15 851 25.13 -2.3 27.8 80 -5.4 22.3
06:40 1021 30.15 850 25.1 -2.6 27.4 80 -5.6 21.9
06:45 1021 30.15 850 25.1 -2.8 26.9 80 -5.8 21.6
06:50 1021 30.15 850 25.1 -2.9 26.8 79 -6 21.1
06:55 1021 30.15 850 25.1 -2.9 26.8 79 -6.1 21.1
07:00 1021 30.15 850 25.1 -3 26.7 79 -6.1 21
07:05 1021 30.15 850 25.1 -3.2 26.3 79 -6.3 20.7
07:10 1021 30.15 850 25.1 -3.5 25.7 81 -6.3 20.7
07:15 1021 30.15 850 25.1 -3.5 25.7 82 -6.1 21
07:20 1021 30.15 850 25.1 -3.4 25.8 82 -6 21.1
07:25 1021 30.15 850 25.1 -3.2 26.2 82 -5.9 21.3
07:30 1021 30.15 850 25.1 -2.8 26.9 81 -5.7 21.8
07:35 1021 30.15 851 25.13 -2.8 26.9 83 -5.3 22.4
07:40 1021 30.15 851 25.13 -2.9 26.8 81 -5.8 21.6
07:45 1021 30.15 851 25.13 -2.9 26.9 80 -5.9 21.4
07:50 1021 30.15 851 25.13 -2.8 26.9 80 -5.8 21.5
07:55 1021 30.15 851 25.13 -2.6 27.3 80 -5.7 21.7
08:00 1021 30.15 850 25.1 -2.6 27.4 79 -5.7 21.7
08:05 1021 30.15 850 25.1 -2.8 27 80 -5.7 21.7
08:10 1021 30.15 851 25.13 -2.5 27.6 80 -5.5 22.1
08:15 1021 30.15 851 25.13 -2.1 28.1 78 -5.5 22.1
08:20 1021 30.15 851 25.13 -2.1 28.1 78 -5.5 22.2
08:25 1021 30.15 850 25.1 -2.5 27.6 79 -5.6 21.9
08:30 1021 30.15 850 25.1 -2.4 27.7 79 -5.6 22
08:35 1021 30.15 850 25.1 -2.3 27.8 79 -5.4 22.2
08:40 1021 30.15 850 25.1 -2.2 28.1 78 -5.5 22.1
08:45 1021 30.15 850 25.1 -1.9 28.5 77 -5.4 22.3
08:50 1021 30.15 850 25.1 -1.6 29.2 76 -5.3 22.4
08:55 1021 30.15 850 25.1 -1.3 29.6 75 -5.3 22.5
09:00 1021 30.15 850 25.1 -1 30.2 73 -5.2 22.7
09:05 1021 30.15 850 25.1 -0.6 31 70 -5.3 22.5
09:10 1021 30.15 850 25.1 -0.2 31.7 69 -5.1 22.8
09:15 1021 30.15 850 25.1 0.5 32.8 67 -5 23
09:20 1021 30.15 850 25.1 0.9 33.6 65 -5 22.9
09:25 1021 30.15 850 25.1 1.3 34.4 63 -5 23
09:30 1021 30.15 850 25.1 1.5 34.6 62 -4.9 23.1
09:35 1021 30.15 850 25.1 1.7 35.1 62 -4.8 23.4
09:40 1021 30.15 850 25.1 2.2 36 62 -4.2 24.4
09:45 1021 30.15 850 25.1 2.2 35.9 62 -4.4 24.2
09:50 1021 30.15 850 25.1 2 35.7 64 -4 24.8
09:55 1021 30.15 850 25.1 1.5 34.7 64 -4.6 23.8
10:00 1021 30.15 850 25.1 2 35.5 64 -4.2 24.4
10:05 1021 30.15 850 25.1 2.5 36.6 61 -4.2 24.4
10:10 1021 30.15 850 25.1 2.4 36.3 61 -4.3 24.3
10:15 1021 30.15 850 25.1 2.7 36.8 60 -4.4 24
10:20 1021 30.15 850 25.1 2.3 36.1 61 -4.4 24.1
10:25 1021 30.15 850 25.1 2.2 36 62 -4.3 24.3
10:30 1021 30.15 850 25.1 2.3 36.2 61 -4.3 24.2
10:35 1021 30.15 850 25.1 2.2 35.9 60 -4.7 23.6
10:40 1021 30.15 850 25.1 2.2 36 61 -4.6 23.7
10:45 1021 30.15 850 25.1 2.7 36.8 59 -4.6 23.7
10:50 1021 30.15 850 25.1 3.1 37.7 57 -4.6 23.8
10:55 1021 30.15 850 25.1 2.7 36.9 60 -4.3 24.2
11:00 1021 30.15 850 25.1 3.7 38.6 57 -4.1 24.7
11:05 1021 30.15 850 25.1 3.9 39 54 -4.5 23.8
11:10 1021 30.15 850 25.1 3.4 38.2 59 -3.7 25.3
11:15 1021 30.15 850 25.1 3.8 38.8 58 -3.8 25.2
11:20 1021 30.15 850 25.1 3.7 38.6 59 -3.5 25.7
11:25 1021 30.15 850 25.1 4 39.2 56 -3.9 25
11:30 1021 30.15 850 25.1 3.8 38.9 59 -3.6 25.6
11:35 1021 30.15 850 25.1 4 39.2 57 -3.7 25.3
11:40 1021 30.15 850 25.1 4.2 39.6 55 -3.9 24.9
11:45 1021 30.15 850 25.1 4.1 39.4 56 -3.8 25.2
11:50 1021 30.15 850 25.1 4.3 39.7 55 -4 24.8
11:55 1021 30.15 850 25.1 4.4 39.9 54 -4.2 24.5
12:00 1021 30.15 850 25.1 4.1 39.3 54 -4.3 24.2
12:05 1021 30.15 850 25.1 4 39.3 55 -4.3 24.3
12:10 1021 30.15 850 25.1 3.7 38.7 55 -4.6 23.7
12:15 1021 30.15 850 25.1 3.6 38.6 54 -4.7 23.6
12:20 1021 30.15 850 25.1 4.3 39.7 51 -5.1 22.8
12:25 1021 30.15 850 25.1 4.3 39.8 52 -4.7 23.6
12:30 1021 30.15 850 25.1 4.6 40.3 50 -4.9 23.1
12:35 1021 30.15 850 25.1 4.1 39.4 52 -4.9 23.1
12:40 1021 30.15 850 25.1 3.7 38.6 53 -5.1 22.9
12:45 1020 30.12 850 25.1 3.4 38 55 -4.7 23.5
12:50 1020 30.12 850 25.1 3.6 38.5 54 -4.9 23.1
12:55 1020 30.12 850 25.1 3.6 38.5 54 -4.8 23.4
13:00 1020 30.12 850 25.1 3.8 38.8 52 -5.1 22.9
13:05 1020 30.12 850 25.1 4.2 39.5 53 -4.5 23.9
13:10 1020 30.12 849 25.07 4.7 40.4 51 -4.6 23.8
13:15 1020 30.12 849 25.07 4.9 40.8 50 -4.6 23.6
13:20 1020 30.12 849 25.07 5 41 51 -4.3 24.2
13:25 1020 30.12 849 25.07 4.6 40.2 53 -4.2 24.4
13:30 1020 30.12 849 25.07 4.7 40.4 51 -4.5 23.8
13:35 1020 30.12 849 25.07 4.6 40.3 52 -4.4 24.1
13:40 1020 30.12 849 25.07 4.8 40.6 52 -4.2 24.4
13:45 1020 30.12 849 25.07 4.9 40.8 51 -4.4 24.1
13:50 1020 30.12 849 25.07 5 41 50 -4.4 24
13:55 1020 30.12 849 25.07 5.1 41.1 52 -4.1 24.7
14:00 1020 30.12 849 25.07 5.1 41.1 51 -4.3 24.2
14:05 1020 30.12 849 25.07 3.9 39.1 55 -4.3 24.2
14:10 1020 30.12 849 25.07 3.7 38.7 56 -4.3 24.3
14:15 1020 30.12 849 25.07 4.3 39.7 54 -4.2 24.5
14:20 1020 30.12 849 25.07 4.6 40.3 52 -4.3 24.3
14:25 1020 30.12 849 25.07 4 39.2 54 -4.4 24.1
14:30 1020 30.12 849 25.07 3.9 38.9 55 -4.4 24.1
14:35 1020 30.12 849 25.07 4.2 39.6 54 -4.2 24.4
14:40 1020 30.12 849 25.07 4.6 40.3 51 -4.6 23.8
14:45 1020 30.12 849 25.07 4.6 40.3 53 -4.2 24.4
14:50 1020 30.12 849 25.07 4.2 39.5 54 -4.3 24.2
14:55 1020 30.12 849 25.07 3.3 38 57 -4.4 24
15:00 1020 30.12 849 25.07 3.5 38.3 56 -4.4 24
15:05 1020 30.12 849 25.07 3.6 38.4 54 -4.9 23.1
15:10 1020 30.12 849 25.07 3.2 37.7 57 -4.6 23.7
15:15 1020 30.12 849 25.07 3.2 37.8 57 -4.5 23.8
15:20 1020 30.12 849 25.07 2.7 36.9 59 -4.4 24.1
15:25 1020 30.12 849 25.07 2.6 36.7 60 -4.5 23.9
15:30 1020 30.12 849 25.07 3 37.5 58 -4.4 24.1
15:35 1020 30.12 850 25.1 3.5 38.2 55 -4.7 23.6
15:40 1020 30.12 850 25.1 4.1 39.3 55 -4.2 24.5
15:45 1021 30.15 850 25.1 3.9 39.1 56 -4 24.8
15:50 1021 30.15 850 25.1 4.1 39.4 57 -3.7 25.3
15:55 1021 30.15 850 25.1 3.9 39 58 -3.6 25.5
16:00 1021 30.15 850 25.1 4 39.2 57 -3.7 25.3
16:05 1021 30.15 850 25.1 4 39.1 55 -4.2 24.4
16:10 1021 30.15 850 25.1 3.9 39.1 54 -4.4 24
16:15 1021 30.15 850 25.1 3.7 38.7 57 -4 24.8
16:20 1021 30.15 850 25.1 3.8 38.8 53 -5 23
16:25 1021 30.15 850 25.1 3.6 38.5 58 -4 24.8
16:30 1021 30.15 850 25.1 3.2 37.8 62 -3.3 26
16:35 1021 30.15 850 25.1 2.8 37 65 -3.2 26.2
16:40 1021 30.15 850 25.1 2.7 36.9 64 -3.3 26
16:45 1021 30.15 850 25.1 2.7 36.9 65 -3.3 26.1
16:50 1021 30.15 850 25.1 2.8 37 64 -3.4 25.9
16:55 1021 30.15 850 25.1 2.7 36.8 67 -2.8 26.9
17:00 1021 30.15 850 25.1 2.8 37 73 -1.7 29
17:05 1021 30.15 850 25.1 2.6 36.7 72 -1.8 28.7
17:10 1021 30.15 850 25.1 2.4 36.3 76 -1.4 29.4
17:15 1021 30.15 850 25.1 2.6 36.7 72 -1.9 28.5
17:20 1021 30.15 850 25.1 3 37.3 71 -1.8 28.8
17:25 1021 30.15 850 25.1 2.8 37 74 -1.3 29.6
17:30 1021 30.15 850 25.1 2.6 36.7 77 -1 30.1
17:35 1021 30.15 850 25.1 2.3 36.1 81 -0.7 30.7
17:40 1021 30.15 850 25.1 2 35.6 83 -0.6 31
17:45 1021 30.15 850 25.1 1.8 35.3 85 -0.4 31.3
17:50 1021 30.15 850 25.1 1.6 34.9 87 -0.3 31.4
17:55 1021 30.15 850 25.1 1.5 34.7 88 -0.2 31.6
18:00 1021 30.15 850 25.1 1.5 34.7 89 -0.1 31.7
18:05 1021 30.15 850 25.1 1.4 34.6 89 -0.2 31.7
18:10 1021 30.15 850 25.1 1.2 34.2 90 -0.2 31.6
18:15 1021 30.15 850 25.1 0.8 33.5 92 -0.3 31.5
18:20 1021 30.15 850 25.1 0.7 33.2 93 -0.3 31.5
18:25 1021 30.15 850 25.1 0.6 33.1 94 -0.3 31.4
18:30 1021 30.15 850 25.1 0.5 32.8 95 -0.3 31.4
18:35 1021 30.15 850 25.1 0.4 32.7 95 -0.3 31.4
18:40 1021 30.15 850 25.1 0.3 32.6 95 -0.4 31.2
18:45 1020 30.12 850 25.1 0.2 32.4 95 -0.5 31.1
18:50 1020 30.12 850 25.1 0.3 32.5 94 -0.5 31.1
18:55 1020 30.12 850 25.1 0.4 32.6 93 -0.6 30.9
19:00 1020 30.12 850 25.1 0.3 32.6 94 -0.6 31
19:05 1020 30.12 850 25.1 0.3 32.6 94 -0.6 31
19:10 1020 30.12 850 25.1 0.3 32.6 93 -0.6 30.9
19:15 1020 30.12 850 25.1 0.4 32.8 93 -0.6 31
19:20 1020 30.12 850 25.1 0.6 33 93 -0.5 31.1
19:25 1020 30.12 850 25.1 0.6 33.2 92 -0.4 31.2
19:30 1020 30.12 850 25.1 0.7 33.3 92 -0.4 31.4
19:35 1020 30.12 850 25.1 0.9 33.5 91 -0.4 31.2
19:40 1020 30.12 850 25.1 0.6 33.1 93 -0.4 31.2
19:45 1020 30.12 850 25.1 0.7 33.2 91 -0.6 31
19:50 1020 30.12 850 25.1 0.7 33.2 92 -0.5 31.2
19:55 1020 30.12 850 25.1 0.9 33.6 91 -0.5 31.1
20:00 1020 30.12 850 25.1 0.8 33.4 92 -0.4 31.2
20:05 1020 30.12 850 25.1 0.7 33.2 92 -0.5 31.2
20:10 1020 30.12 849 25.07 0.7 33.3 92 -0.5 31.1
20:15 1020 30.12 849 25.07 0.7 33.3 92 -0.4 31.3
20:20 1020 30.12 849 25.07 0.9 33.7 91 -0.4 31.2
20:25 1020 30.12 849 25.07 0.9 33.6 92 -0.3 31.4
20:30 1020 30.12 849 25.07 0.6 33.1 93 -0.5 31.2
20:35 1020 30.12 849 25.07 0.7 33.3 92 -0.4 31.2
20:40 1020 30.12 849 25.07 1.1 33.9 90 -0.4 31.3
20:45 1020 30.12 849 25.07 1.1 34 90 -0.3 31.4
20:50 1020 30.12 849 25.07 0.9 33.5 92 -0.4 31.3
20:55 1020 30.12 849 25.07 0.8 33.5 92 -0.3 31.4
21:00 1020 30.12 849 25.07 1.1 33.9 90 -0.4 31.4
21:05 1020 30.12 849 25.07 1.1 34 91 -0.3 31.5
21:10 1020 30.12 849 25.07 0.9 33.6 92 -0.3 31.4
21:15 1020 30.12 849 25.07 0.7 33.3 93 -0.3 31.4
21:20 1020 30.12 849 25.07 0.8 33.4 93 -0.2 31.6
21:25 1020 30.12 849 25.07 1.2 34.2 89 -0.4 31.3
21:30 1020 30.12 849 25.07 1.7 35.1 87 -0.2 31.6
21:35 1020 30.12 849 25.07 1.8 35.3 86 -0.3 31.4
21:40 1020 30.12 849 25.07 2 35.5 85 -0.3 31.5
21:45 1020 30.12 849 25.07 2 35.5 86 -0.2 31.6
21:50 1020 30.12 849 25.07 2 35.6 85 -0.3 31.4
21:55 1020 30.12 849 25.07 2.1 35.7 84 -0.4 31.3
22:00 1020 30.12 849 25.07 2.1 35.8 84 -0.3 31.5
22:05 1020 30.12 849 25.07 2.1 35.8 84 -0.3 31.4
22:10 1020 30.12 849 25.07 2.1 35.9 84 -0.3 31.5
22:15 1020 30.12 849 25.07 2.1 35.8 84 -0.4 31.3
22:20 1020 30.12 849 25.07 2.2 36 83 -0.4 31.2
22:25 1020 30.12 849 25.07 2.2 36 83 -0.4 31.3
22:30 1020 30.12 849 25.07 2.2 36 82 -0.5 31.1
22:35 1020 30.12 849 25.07 2.2 35.9 84 -0.2 31.6
22:40 1020 30.12 849 25.07 2 35.6 85 -0.3 31.4
22:45 1020 30.12 849 25.07 2 35.6 84 -0.4 31.2
22:50 1020 30.12 849 25.07 2 35.6 84 -0.4 31.3
22:55 1020 30.12 849 25.07 2.1 35.8 84 -0.3 31.5
23:00 1020 30.12 849 25.07 2 35.7 84 -0.3 31.4
23:05 1020 30.12 849 25.07 1.9 35.5 85 -0.4 31.3
23:10 1020 30.12 849 25.07 1.9 35.4 85 -0.4 31.3
23:15 1020 30.12 849 25.07 1.9 35.4 84 -0.5 31.2
23:20 1020 30.12 849 25.07 2 35.7 84 -0.4 31.2
23:25 1020 30.12 849 25.07 2.1 35.7 83 -0.6 31
23:30 1020 30.12 849 25.07 2.1 35.7 83 -0.5 31.1
23:35 1020 30.12 849 25.07 1.9 35.4 84 -0.5 31.1
23:40 1020 30.12 849 25.07 1.7 35 85 -0.5 31
23:45 1020 30.12 849 25.07 1.4 34.5 85 -0.9 30.4
23:50 1020 30.12 849 25.07 1.5 34.7 83 -1.1 30.1
23:55 1020 30.12 849 25.07 1.8 35.2 82 -1 30.2